createdAt,value
2022-11-28T00:02:16.420Z,99002.50
2022-11-28T00:04:44.739Z,99001.47
2022-11-28T00:07:13.325Z,98995.50
2022-11-28T00:09:42.003Z,99001.34
2022-11-28T00:12:10.308Z,99003.59
2022-11-28T00:14:38.841Z,99008.19
2022-11-28T00:17:07.541Z,99009.03
2022-11-28T00:19:37.396Z,98995.09
2022-11-28T00:22:05.449Z,98998.25
2022-11-28T00:24:33.517Z,98986.03
2022-11-28T00:27:01.712Z,98978.66
2022-11-28T00:29:30.068Z,98968.00
2022-11-28T00:31:58.214Z,98978.84
2022-11-28T00:34:26.383Z,98966.16
2022-11-28T00:36:55.886Z,98963.31
2022-11-28T00:39:24.620Z,98964.16
2022-11-28T00:41:52.823Z,98962.09
2022-11-28T00:44:21.254Z,98961.47
2022-11-28T00:46:49.596Z,98963.56
2022-11-28T00:49:18.735Z,98961.47
2022-11-28T00:51:47.238Z,98962.16
2022-11-28T00:54:17.057Z,98959.88
2022-11-28T00:56:45.674Z,98962.72
2022-11-28T00:59:14.325Z,98964.75
2022-11-28T01:01:45.317Z,98955.69
2022-11-28T01:04:16.507Z,98963.06
2022-11-28T01:06:48.477Z,98965.13
2022-11-28T01:09:23.057Z,98964.50
2022-11-28T01:11:52.880Z,98956.09
2022-11-28T01:14:24.490Z,98954.16
2022-11-28T01:16:52.850Z,98951.78
2022-11-28T01:19:21.678Z,98946.59
2022-11-28T01:21:50.346Z,98942.00
2022-11-28T01:24:21.363Z,98951.00
2022-11-28T01:26:49.505Z,98950.66
2022-11-28T01:29:18.179Z,98950.00
2022-11-28T01:31:46.441Z,98947.31
2022-11-28T01:34:15.597Z,98940.88
2022-11-28T01:36:44.669Z,98934.66
2022-11-28T01:39:17.414Z,98923.41
2022-11-28T01:41:47.721Z,98914.28
2022-11-28T01:44:49.742Z,98914.22
2022-11-28T01:47:23.077Z,98914.69
2022-11-28T01:49:53.429Z,98907.84
2022-11-28T01:52:23.194Z,98906.94
2022-11-28T01:54:58.800Z,98915.88
2022-11-28T01:57:30.415Z,98910.03
2022-11-28T02:00:03.749Z,98904.25
2022-11-28T02:02:38.103Z,98903.88
2022-11-28T02:05:07.249Z,98911.88
2022-11-28T02:07:35.804Z,98902.59
2022-11-28T02:10:07.734Z,98900.50
2022-11-28T02:12:53.523Z,98902.00
2022-11-28T02:15:37.212Z,98899.44
2022-11-28T02:18:19.839Z,98889.91
2022-11-28T02:21:04.148Z,98884.63
2022-11-28T02:23:51.563Z,98871.72
2022-11-28T02:26:42.537Z,98870.66
2022-11-28T02:29:42.956Z,98863.25
2022-11-28T02:32:20.061Z,98872.72
2022-11-28T02:34:57.211Z,98859.72
2022-11-28T02:37:30.754Z,98859.16
2022-11-28T02:40:08.982Z,98857.97
2022-11-28T02:42:51.969Z,98856.97
2022-11-28T02:45:29.020Z,98839.53
2022-11-28T02:48:04.549Z,98840.06
2022-11-28T02:50:39.818Z,98848.72
2022-11-28T02:53:14.288Z,98857.97
2022-11-28T02:55:45.720Z,98856.44
2022-11-28T02:58:14.681Z,98846.53
2022-11-28T03:00:45.055Z,98855.63
2022-11-28T03:06:24.559Z,98855.47
2022-11-28T03:09:19.657Z,98849.28
2022-11-28T03:11:56.352Z,98849.44
2022-11-28T03:14:42.933Z,98845.41
2022-11-28T03:17:17.535Z,98835.56
2022-11-28T03:19:53.305Z,98843.44
2022-11-28T03:22:29.675Z,98828.72
2022-11-28T03:25:10.544Z,98816.34
2022-11-28T03:27:45.524Z,98821.50
2022-11-28T03:30:19.742Z,98813.50
2022-11-28T03:32:52.307Z,98826.41
2022-11-28T03:35:26.414Z,98823.72
2022-11-28T03:38:01.027Z,98844.72
2022-11-28T03:40:38.026Z,98860.88
2022-11-28T03:43:10.239Z,98841.22
2022-11-28T03:45:44.079Z,98842.91
2022-11-28T03:48:18.110Z,98828.72
2022-11-28T03:50:53.410Z,98819.66
2022-11-28T03:53:28.452Z,98815.50
2022-11-28T03:56:02.073Z,98807.47
2022-11-28T03:58:37.253Z,98824.06
2022-11-28T04:01:12.444Z,98814.91
2022-11-28T04:03:48.257Z,98814.00
2022-11-28T04:06:20.597Z,98800.03
2022-11-28T04:08:59.058Z,98789.81
2022-11-28T04:11:31.889Z,98788.19
2022-11-28T04:14:06.006Z,98794.44
2022-11-28T04:16:40.159Z,98805.06
2022-11-28T04:19:16.590Z,98800.44
2022-11-28T04:21:53.138Z,98797.38
2022-11-28T04:24:29.630Z,98786.47
2022-11-28T04:27:02.870Z,98784.91
2022-11-28T04:29:36.214Z,98785.88
2022-11-28T04:32:07.679Z,98781.88
2022-11-28T04:34:38.017Z,98780.03
2022-11-28T04:37:10.376Z,98779.88
2022-11-28T04:39:44.806Z,98771.50
2022-11-28T04:42:17.001Z,98767.78
2022-11-28T04:44:52.821Z,98780.38
2022-11-28T04:47:21.378Z,98767.19
2022-11-28T04:49:51.820Z,98759.41
2022-11-28T04:52:26.435Z,98763.38
2022-11-28T04:55:02.673Z,98771.09
2022-11-28T04:57:36.112Z,98771.50
2022-11-28T05:00:07.938Z,98776.84
2022-11-28T05:02:38.310Z,98765.72
2022-11-28T05:05:10.629Z,98765.66
2022-11-28T05:07:39.146Z,98768.81
2022-11-28T05:10:12.221Z,98777.25
2022-11-28T05:12:41.333Z,98770.03
2022-11-28T05:15:10.974Z,98769.19
2022-11-28T05:17:42.405Z,98773.38
2022-11-28T05:20:12.931Z,98772.78
2022-11-28T05:22:41.310Z,98783.34
2022-11-28T05:25:11.642Z,98792.72
2022-11-28T05:27:39.789Z,98794.25
2022-11-28T05:30:09.682Z,98785.28
2022-11-28T05:32:37.889Z,98788.66
2022-11-28T05:35:07.198Z,98790.19
2022-11-28T05:37:35.611Z,98793.56
2022-11-28T05:40:03.951Z,98786.13
2022-11-28T05:42:35.934Z,98778.09
2022-11-28T05:45:04.993Z,98768.03
2022-11-28T05:47:34.028Z,98762.69
2022-11-28T05:50:02.496Z,98766.78
2022-11-28T05:52:32.558Z,98759.69
2022-11-28T05:55:01.954Z,98759.75
2022-11-28T05:57:32.245Z,98761.75
2022-11-28T06:00:02.335Z,98764.41
2022-11-28T06:02:30.484Z,98773.22
2022-11-28T06:05:00.004Z,98771.84
2022-11-28T06:07:35.858Z,98764.28
2022-11-28T06:10:07.365Z,98778.34
2022-11-28T06:12:35.613Z,98781.06
2022-11-28T06:15:06.143Z,98778.19
2022-11-28T06:17:34.338Z,98771.31
2022-11-28T06:20:03.255Z,98772.00
2022-11-28T06:22:31.400Z,98777.06
2022-11-28T06:24:59.527Z,98771.50
2022-11-28T06:27:28.999Z,98776.91
2022-11-28T06:29:57.100Z,98787.47
2022-11-28T06:32:28.416Z,98775.72
2022-11-28T06:34:57.175Z,98779.97
2022-11-28T06:37:25.399Z,98768.19
2022-11-28T06:39:53.870Z,98774.84
2022-11-28T06:42:21.967Z,98775.81
2022-11-28T06:44:50.539Z,98779.59
2022-11-28T06:47:18.994Z,98770.53
2022-11-28T06:49:50.148Z,98766.84
2022-11-28T06:52:18.271Z,98769.03
2022-11-28T06:54:47.071Z,98770.44
2022-11-28T06:57:15.808Z,98774.44
2022-11-28T06:59:44.452Z,98773.69
2022-11-28T07:02:13.466Z,98781.31
2022-11-28T07:04:42.128Z,98781.06
2022-11-28T07:07:16.334Z,98782.06
2022-11-28T07:09:45.281Z,98783.63
2022-11-28T07:12:13.529Z,98791.28
2022-11-28T07:14:42.526Z,98800.44
2022-11-28T07:17:11.441Z,98804.34
2022-11-28T07:19:39.924Z,98804.06
2022-11-28T07:22:08.231Z,98793.78
2022-11-28T07:24:38.082Z,98795.84
2022-11-28T07:27:06.628Z,98794.44
2022-11-28T07:29:37.065Z,98797.81
2022-11-28T07:32:06.480Z,98796.78
2022-11-28T07:34:35.410Z,98801.19
2022-11-28T07:37:03.606Z,98808.53
2022-11-28T07:39:32.045Z,98804.63
2022-11-28T07:42:01.819Z,98801.53
2022-11-28T07:44:29.976Z,98805.19
2022-11-28T07:46:58.462Z,98804.56
2022-11-28T07:49:26.608Z,98809.91
2022-11-28T07:51:55.252Z,98818.97
2022-11-28T07:54:24.135Z,98813.38
2022-11-28T07:59:42.883Z,98811.56
2022-11-28T08:02:12.422Z,98817.25
2022-11-28T08:04:47.077Z,98818.88
2022-11-28T08:07:17.856Z,98810.25
2022-11-28T08:09:46.112Z,98804.63
2022-11-28T08:12:14.434Z,98811.34
2022-11-28T08:14:44.887Z,98806.19
2022-11-28T08:17:13.326Z,98802.38
2022-11-28T08:19:41.728Z,98796.97
2022-11-28T08:22:10.201Z,98799.66
2022-11-28T08:24:38.868Z,98803.91
2022-11-28T08:27:06.996Z,98793.91
2022-11-28T08:29:35.176Z,98794.25
2022-11-28T08:32:04.969Z,98789.59
2022-11-28T08:34:33.096Z,98785.19
2022-11-28T08:37:01.882Z,98774.28
2022-11-28T08:39:30.095Z,98788.25
2022-11-28T08:41:59.682Z,98781.22
2022-11-28T08:44:30.825Z,98786.72
2022-11-28T08:46:59.375Z,98783.63
2022-11-28T08:49:29.245Z,98792.63
2022-11-28T08:51:57.398Z,98783.22
2022-11-28T08:54:25.926Z,98783.25
2022-11-28T08:56:54.221Z,98773.59
2022-11-28T08:59:22.944Z,98780.97
2022-11-28T09:01:53.585Z,98787.66
2022-11-28T09:04:21.993Z,98780.19
2022-11-28T09:06:51.871Z,98780.03
2022-11-28T09:09:20.487Z,98773.53
2022-11-28T09:11:48.947Z,98782.22
2022-11-28T09:14:17.520Z,98788.94
2022-11-28T09:16:46.417Z,98785.34
2022-11-28T09:19:14.579Z,98779.25
2022-11-28T09:21:44.084Z,98788.75
2022-11-28T09:24:14.243Z,98783.84
2022-11-28T09:26:43.375Z,98782.94
2022-11-28T09:29:11.456Z,98782.94
2022-11-28T09:31:44.347Z,98784.78
2022-11-28T09:34:15.163Z,98776.34
2022-11-28T09:36:43.640Z,98783.44
2022-11-28T09:39:13.449Z,98773.00
2022-11-28T09:42:03.558Z,98770.88
2022-11-28T09:44:41.027Z,98759.44
2022-11-28T09:47:19.576Z,98754.03
2022-11-28T09:49:51.772Z,98754.69
2022-11-28T09:52:32.251Z,98758.19
2022-11-28T09:55:11.421Z,98758.72
2022-11-28T09:57:43.243Z,98742.00
2022-11-28T10:00:19.175Z,98750.00
2022-11-28T10:03:09.906Z,98754.28
2022-11-28T10:05:43.551Z,98760.69
2022-11-28T10:08:23.422Z,98760.47
2022-11-28T10:11:02.337Z,98770.22
2022-11-28T10:14:07.045Z,98758.00
2022-11-28T10:16:50.495Z,98756.38
2022-11-28T10:19:52.888Z,98755.16
2022-11-28T10:22:18.304Z,98747.44
2022-11-28T10:24:53.978Z,98746.19
2022-11-28T10:27:27.253Z,98744.56
2022-11-28T10:30:03.451Z,98742.13
2022-11-28T10:32:36.014Z,98735.47
2022-11-28T10:35:07.759Z,98731.16
2022-11-28T10:37:39.437Z,98731.69
2022-11-28T10:40:19.930Z,98737.09
2022-11-28T10:42:57.392Z,98731.91
2022-11-28T10:45:32.766Z,98728.81
2022-11-28T10:51:17.215Z,98736.50
2022-11-28T10:53:53.226Z,98730.00
2022-11-28T10:56:33.878Z,98735.31
2022-11-28T10:59:15.010Z,98740.50
2022-11-28T11:01:48.693Z,98733.94
2022-11-28T11:04:21.137Z,98731.06
2022-11-28T11:07:10.140Z,98737.25
2022-11-28T11:09:41.685Z,98736.41
2022-11-28T11:12:20.602Z,98743.34
2022-11-28T11:14:50.888Z,98742.34
2022-11-28T11:17:36.134Z,98735.66
2022-11-28T11:20:27.181Z,98736.91
2022-11-28T11:22:57.809Z,98737.47
2022-11-28T11:25:29.023Z,98736.63
2022-11-28T11:28:01.159Z,98736.41
2022-11-28T11:30:33.747Z,98725.56
2022-11-28T11:33:05.580Z,98735.13
2022-11-28T11:35:38.003Z,98724.03
2022-11-28T11:38:31.261Z,98730.63
2022-11-28T11:41:22.389Z,98719.22
2022-11-28T11:43:50.564Z,98718.63
2022-11-28T11:46:25.472Z,98720.84
2022-11-28T11:48:54.932Z,98718.31
2022-11-28T11:51:25.583Z,98713.56
2022-11-28T11:54:06.249Z,98707.78
2022-11-28T11:56:38.961Z,98712.19
2022-11-28T11:59:15.252Z,98715.72
2022-11-28T12:01:47.680Z,98721.06
2022-11-28T12:07:18.999Z,98717.50
2022-11-28T12:09:52.659Z,98709.75
2022-11-28T12:12:25.428Z,98709.97
2022-11-28T12:14:54.348Z,98710.66
2022-11-28T12:20:44.589Z,98712.72
2022-11-28T12:23:35.271Z,98703.13
2022-11-28T12:26:11.618Z,98708.72
2022-11-28T12:28:54.962Z,98705.88
2022-11-28T12:31:33.560Z,98704.09
2022-11-28T12:34:12.658Z,98710.63
2022-11-28T12:36:48.272Z,98701.03
2022-11-28T12:39:23.208Z,98700.78
2022-11-28T12:42:09.535Z,98703.00
2022-11-28T12:44:53.851Z,98696.88
2022-11-28T12:47:34.262Z,98690.78
2022-11-28T12:50:16.117Z,98685.50
2022-11-28T12:52:54.755Z,98689.50
2022-11-28T12:55:33.518Z,98690.09
2022-11-28T12:58:10.395Z,98686.38
2022-11-28T13:00:52.317Z,98688.06
2022-11-28T13:03:38.645Z,98685.53
2022-11-28T13:06:22.388Z,98689.69
2022-11-28T13:09:24.515Z,98685.16
2022-11-28T13:12:03.266Z,98685.16
2022-11-28T13:14:42.027Z,98679.75
2022-11-28T13:17:23.138Z,98691.69
2022-11-28T13:19:56.820Z,98691.69
2022-11-28T13:22:31.196Z,98691.28
2022-11-28T13:25:04.449Z,98682.88
2022-11-28T13:27:40.773Z,98694.31
2022-11-28T13:30:18.601Z,98692.56
2022-11-28T13:32:54.776Z,98689.06
2022-11-28T13:35:23.824Z,98696.38
2022-11-28T13:40:52.980Z,98693.22
2022-11-28T13:43:30.628Z,98693.94
2022-11-28T13:45:59.453Z,98692.38
2022-11-28T13:51:42.291Z,98695.97
2022-11-28T13:54:46.525Z,98689.59
2022-11-28T13:57:39.110Z,98692.38
2022-11-28T14:00:23.401Z,98693.56
2022-11-28T14:02:54.563Z,98702.75
2022-11-28T14:05:37.304Z,98691.88
2022-11-28T14:08:07.581Z,98701.38
2022-11-28T14:10:58.316Z,98704.59
2022-11-28T14:13:47.693Z,98694.19
2022-11-28T14:16:28.999Z,98696.59
2022-11-28T14:19:19.046Z,98701.22
2022-11-28T14:22:00.770Z,98702.47
2022-11-28T14:24:48.405Z,98709.34
2022-11-28T14:27:24.405Z,98711.53
2022-11-28T14:29:56.227Z,98714.69
2022-11-28T14:32:34.055Z,98707.91
2022-11-28T14:35:03.528Z,98717.16
2022-11-28T14:37:57.791Z,98713.44
2022-11-28T14:41:02.553Z,98721.38
2022-11-28T14:43:33.298Z,98720.13
2022-11-28T14:46:27.866Z,98718.34
2022-11-28T14:49:19.169Z,98719.44
2022-11-28T14:55:20.779Z,98723.66
2022-11-28T14:58:00.980Z,98727.31
2022-11-28T15:00:39.099Z,98722.72
2022-11-28T15:03:29.394Z,98719.25
2022-11-28T15:06:02.458Z,98723.31
2022-11-28T15:08:41.405Z,98731.38
2022-11-28T15:11:25.649Z,98732.41
2022-11-28T15:14:15.709Z,98738.09
2022-11-28T15:16:50.392Z,98744.69
2022-11-28T15:19:28.634Z,98746.19
2022-11-28T15:21:57.676Z,98740.09
2022-11-28T15:24:31.359Z,98749.06
2022-11-28T15:27:17.335Z,98745.28
2022-11-28T15:29:54.957Z,98750.75
2022-11-28T15:32:25.812Z,98751.63
2022-11-28T15:35:00.239Z,98752.78
2022-11-28T15:37:33.854Z,98742.34
2022-11-28T15:40:04.748Z,98749.91
2022-11-28T15:42:34.627Z,98754.97
2022-11-28T15:45:11.869Z,98757.03
2022-11-28T15:47:45.849Z,98750.72
2022-11-28T15:50:19.492Z,98759.22
2022-11-28T15:52:58.702Z,98764.25
2022-11-28T15:55:30.121Z,98766.63
2022-11-28T15:58:21.221Z,98770.72
2022-11-28T16:00:51.981Z,98773.72
2022-11-28T16:03:25.975Z,98767.53
2022-11-28T16:05:56.504Z,98768.78
2022-11-28T16:08:29.863Z,98778.31
2022-11-28T16:10:59.615Z,98777.94
2022-11-28T16:13:31.619Z,98776.16
2022-11-28T16:16:04.580Z,98774.41
2022-11-28T16:18:34.666Z,98780.31
2022-11-28T16:21:05.240Z,98784.03
2022-11-28T16:23:37.862Z,98780.84
2022-11-28T16:26:08.854Z,98782.47
2022-11-28T16:28:38.533Z,98787.25
2022-11-28T16:31:13.082Z,98786.69
2022-11-28T16:33:44.999Z,98783.78
2022-11-28T16:36:22.005Z,98789.50
2022-11-28T16:38:52.937Z,98790.78
2022-11-28T16:41:23.903Z,98794.56
2022-11-28T16:43:57.879Z,98790.06
2022-11-28T16:46:35.527Z,98795.59
2022-11-28T16:49:08.242Z,98792.50
2022-11-28T16:51:39.132Z,98792.97
2022-11-28T16:54:29.422Z,98798.22
2022-11-28T16:57:08.543Z,98802.00
2022-11-28T16:59:36.933Z,98802.81
2022-11-28T17:02:15.905Z,98811.97
2022-11-28T17:04:49.401Z,98810.44
2022-11-28T17:07:19.133Z,98809.88
2022-11-28T17:09:49.499Z,98808.34
2022-11-28T17:12:26.032Z,98803.00
2022-11-28T17:14:55.705Z,98805.31
2022-11-28T17:17:26.609Z,98807.06
2022-11-28T17:19:56.229Z,98806.34
2022-11-28T17:22:26.858Z,98811.75
2022-11-28T17:25:00.023Z,98810.59
2022-11-28T17:27:28.812Z,98808.81
2022-11-28T17:29:57.195Z,98812.69
2022-11-28T17:32:27.578Z,98811.75
2022-11-28T17:34:59.933Z,98820.84
2022-11-28T17:37:28.996Z,98813.63
2022-11-28T17:40:18.355Z,98815.84
2022-11-28T17:42:47.398Z,98821.50
2022-11-28T17:45:17.862Z,98831.31
2022-11-28T17:47:47.443Z,98825.81
2022-11-28T17:50:17.887Z,98825.28
2022-11-28T17:52:46.387Z,98827.53
2022-11-28T17:55:14.844Z,98824.91
2022-11-28T17:57:43.247Z,98830.38
2022-11-28T18:00:14.710Z,98830.00
2022-11-28T18:02:43.186Z,98837.38
2022-11-28T18:05:11.615Z,98829.88
2022-11-28T18:07:41.753Z,98836.88
2022-11-28T18:10:11.121Z,98832.13
2022-11-28T18:12:39.912Z,98844.34
2022-11-28T18:15:10.375Z,98836.81
2022-11-28T18:17:39.143Z,98836.88
2022-11-28T18:20:09.115Z,98833.00
2022-11-28T18:22:37.516Z,98833.25
2022-11-28T18:25:09.064Z,98835.78
2022-11-28T18:27:37.998Z,98843.59
2022-11-28T18:30:07.578Z,98843.97
2022-11-28T18:32:43.532Z,98845.47
2022-11-28T18:35:12.110Z,98850.31
2022-11-28T18:37:41.341Z,98844.97
2022-11-28T18:40:12.669Z,98852.03
2022-11-28T18:42:42.127Z,98847.63
2022-11-28T18:45:13.931Z,98845.06
2022-11-28T18:47:42.335Z,98846.75
2022-11-28T18:50:12.307Z,98848.91
2022-11-28T18:52:40.918Z,98848.38
2022-11-28T18:55:11.011Z,98845.63
2022-11-28T18:57:41.533Z,98847.53
2022-11-28T19:00:10.616Z,98845.84
2022-11-28T19:02:39.149Z,98857.50
2022-11-28T19:05:08.403Z,98846.69
2022-11-28T19:07:36.985Z,98862.16
2022-11-28T19:10:06.303Z,98865.19
2022-11-28T19:12:35.811Z,98867.19
2022-11-28T19:15:05.120Z,98869.50
2022-11-28T19:17:33.236Z,98861.44
2022-11-28T19:20:01.653Z,98858.69
2022-11-28T19:22:30.085Z,98870.34
2022-11-28T19:25:00.768Z,98868.56
2022-11-28T19:27:30.382Z,98868.81
2022-11-28T19:30:00.413Z,98868.41
2022-11-28T19:32:29.199Z,98872.13
2022-11-28T19:34:58.727Z,98868.50
2022-11-28T19:37:28.415Z,98865.25
2022-11-28T19:40:02.206Z,98871.50
2022-11-28T19:42:31.194Z,98870.09
2022-11-28T19:45:01.191Z,98875.72
2022-11-28T19:47:29.655Z,98881.66
2022-11-28T19:49:59.781Z,98880.47
2022-11-28T19:52:29.635Z,98876.72
2022-11-28T19:55:00.534Z,98878.53
2022-11-28T19:57:29.311Z,98876.03
2022-11-28T20:00:04.802Z,98881.06
2022-11-28T20:02:35.979Z,98875.16
2022-11-28T20:05:04.984Z,98878.72
2022-11-28T20:07:33.837Z,98883.03
2022-11-28T20:10:03.318Z,98880.63
2022-11-28T20:12:32.064Z,98888.00
2022-11-28T20:15:03.059Z,98890.06
2022-11-28T20:17:31.847Z,98884.19
2022-11-28T20:20:00.554Z,98889.16
2022-11-28T20:22:29.329Z,98892.88
2022-11-28T20:24:58.487Z,98894.13
2022-11-28T20:27:27.031Z,98896.09
2022-11-28T20:29:55.472Z,98897.22
2022-11-28T20:32:26.228Z,98907.03
2022-11-28T20:34:54.662Z,98908.22
2022-11-28T20:37:23.103Z,98899.50
2022-11-28T20:39:51.529Z,98905.09
2022-11-28T20:42:20.357Z,98899.03
2022-11-28T20:44:50.288Z,98909.94
2022-11-28T20:47:18.765Z,98907.38
2022-11-28T20:49:49.075Z,98913.75
2022-11-28T20:52:17.912Z,98916.22
2022-11-28T20:54:50.557Z,98916.38
2022-11-28T20:57:21.858Z,98916.13
2022-11-28T20:59:51.062Z,98913.66
2022-11-28T21:02:19.619Z,98914.59
2022-11-28T21:04:50.413Z,98924.97
2022-11-28T21:07:18.849Z,98919.09
2022-11-28T21:09:47.588Z,98917.31
2022-11-28T21:12:21.075Z,98923.72
2022-11-28T21:14:50.292Z,98920.16
2022-11-28T21:17:19.033Z,98918.00
2022-11-28T21:19:49.018Z,98916.47
2022-11-28T21:22:17.695Z,98914.06
2022-11-28T21:24:49.637Z,98919.63
2022-11-28T21:27:18.707Z,98917.78
2022-11-28T21:29:47.165Z,98913.59
2022-11-28T21:32:16.460Z,98917.47
2022-11-28T21:34:46.782Z,98915.56
2022-11-28T21:37:18.762Z,98917.03
2022-11-28T21:39:47.709Z,98917.91
2022-11-28T21:42:20.469Z,98909.47
2022-11-28T21:44:49.436Z,98914.22
2022-11-28T21:47:17.618Z,98917.41
2022-11-28T21:49:46.042Z,98913.66
2022-11-28T21:52:16.734Z,98911.50
2022-11-28T21:54:46.700Z,98922.41
2022-11-28T21:57:15.576Z,98914.44
2022-11-28T21:59:45.451Z,98917.31
2022-11-28T22:02:16.381Z,98920.34
2022-11-28T22:04:45.391Z,98924.38
2022-11-28T22:07:14.215Z,98922.63
2022-11-28T22:09:44.728Z,98929.06
2022-11-28T22:12:13.485Z,98925.72
2022-11-28T22:14:42.199Z,98924.97
2022-11-28T22:17:10.276Z,98917.53
2022-11-28T22:19:38.755Z,98926.91
2022-11-28T22:22:07.496Z,98931.00
2022-11-28T22:24:36.236Z,98928.69
2022-11-28T22:27:06.042Z,98932.38
2022-11-28T22:29:34.194Z,98932.94
2022-11-28T22:32:03.466Z,98932.00
2022-11-28T22:34:40.333Z,98952.66
2022-11-28T22:37:10.570Z,98932.84
2022-11-28T22:39:39.126Z,98945.47
2022-11-28T22:42:10.081Z,98936.97
2022-11-28T22:44:38.402Z,98941.22
2022-11-28T22:47:07.116Z,98942.31
2022-11-28T22:49:37.521Z,98945.63
2022-11-28T22:52:06.962Z,98943.28
2022-11-28T22:54:35.214Z,98944.38
2022-11-28T22:57:05.459Z,98940.13
2022-11-28T22:59:38.814Z,98940.25
2022-11-28T23:02:07.829Z,98944.22
2022-11-28T23:04:36.404Z,98943.38
2022-11-28T23:07:06.125Z,98943.06
2022-11-28T23:09:37.060Z,98948.19
2022-11-28T23:12:06.040Z,98949.66
2022-11-28T23:14:36.303Z,98961.72
2022-11-28T23:17:04.947Z,98952.41
2022-11-28T23:19:33.465Z,98957.09
2022-11-28T23:22:01.874Z,98950.81
2022-11-28T23:24:30.526Z,98956.63
2022-11-28T23:27:00.564Z,98955.44
2022-11-28T23:29:28.680Z,98954.19
2022-11-28T23:31:59.394Z,98958.59
2022-11-28T23:34:28.681Z,98954.66
2022-11-28T23:36:56.806Z,98952.78
2022-11-28T23:39:26.808Z,98954.53
2022-11-28T23:41:56.078Z,98952.78
2022-11-28T23:44:24.807Z,98956.28
2022-11-28T23:46:53.023Z,98956.78
2022-11-28T23:49:24.137Z,98950.50
2022-11-28T23:51:55.978Z,98952.31
2022-11-28T23:54:24.946Z,98955.59
2022-11-28T23:56:53.384Z,98950.78
2022-11-28T23:59:21.973Z,98951.88
